Aérodrome :
LOGIN :

S'inscrire | Disclaimer

   EN    FR    IT 

 










Légende :    VFR   VFR Marginal   IFR   IFR Intensif   IFR Très Intensif
Visi : 
Plafond : 
>= 8 km
>= 3000ft
5 à 8 km
1000 à 3000 ft
1500m à 5 km
500 à 1000 ft
800 à 1500m
200 à 500 ft
< 800m
< 200 ft
Symboles :   Orages  Brouillard  Fortes neiges  Fortes précipitations  Vent > 20 kt
SIGMETs :   Divers  Orages  Givrage  Turbulence  Onde Orograph.  Cendres Volcan.







- Altitude de l'aérodrome : 142 ft
- Code IATA : ALC


LEAL - Alicante

DERNIER METAR :
  • 251100Z 23010KT 190V260 9999 FEW025 14/04 Q1011 NOSIG

METARs EXPIRÉS :
  • 251030Z 22008KT CAVOK 13/05 Q1011 NOSIG
  • 251000Z 22008KT 180V250 CAVOK 12/05 Q1011 NOSIG
  • 250930Z 21006KT 160V250 CAVOK 11/05 Q1012 NOSIG
  • 250900Z 22006KT CAVOK 10/05 Q1011 NOSIG
  • 250830Z 24006KT 210V270 CAVOK 10/05 Q1011 NOSIG

TAF TAF LEAL
Valide du 25 à 12h jusqu'au 26 à 12h UTC


251100Z 2512/2612 24008KT 9999 FEW030 TX17/2513Z TN06/2606Z
BECMG 2512/2514 18012G25KT
TEMPO 2519/2521 02007KT
BECMG 2520/2522 28010KT
Pas de NOTAMs connus pour ce terrain.
2 SIGMETs publiés pour la FIR Barcelona (LECB) :
 
Turbulence forte
LECB SIGMET 3 VALID 251200/251600 LEVA
LECB BARCELONA FIR/UIR SEV TURB FCST WI N3901 W00111 - N3815 E00315 - N3743 E00159 - N3726 W00142 - N3901 W00111 FL200/300 MOV S 10KT NC=
Turbulence forte
LECB SIGMET 2 VALID 250800/251200 LEVA
LECB BARCELONA FIR/UIR SEV TURB FCST WI N4009 W00051 - N3828 E00348 - N3749 E00211 - N3801 W00130 - N4009 W00051 FL200/300 MOV S 10KT NC=



MET'MAP, la Météo Aéronautique d'un coup d'oeil ! - Copyright ORBIFLY Décembre 2007 - Disclaimer

ORBIFLY MET'MAP TEAM :

Programmation & Développement : Alexandra Zaïnal
Conception & Développement : Baudouin d'Aumeries
Co-Programmation & Développement : Marc-Olivier Méhu
Soutien technique & logistique : Manuel Goepfert

Contact : metmap@orbifly.com




SOURCES & CREDITS :

   NOAA